sensor_id;sensor_type;location;lat;lon;timestamp;pressure;altitude;pressure_sealevel;temperature;humidity
64292;BME280;50628;51.008;13.658;2023-05-10T00:00:31;99234.81;;;13.13;74.72
64292;BME280;50628;51.008;13.658;2023-05-10T00:05:34;99230.66;;;13.02;75.98
64292;BME280;50628;51.008;13.658;2023-05-10T00:10:36;99221.91;;;13.11;75.15
64292;BME280;50628;51.008;13.658;2023-05-10T00:15:38;99226.94;;;12.87;76.93
64292;BME280;50628;51.008;13.658;2023-05-10T00:20:41;99221.34;;;12.82;77.02
64292;BME280;50628;51.008;13.658;2023-05-10T00:25:43;99217.41;;;12.77;77.41
64292;BME280;50628;51.008;13.658;2023-05-10T00:30:45;99218.38;;;12.76;78.02
64292;BME280;50628;51.008;13.658;2023-05-10T00:35:48;99208.38;;;12.72;78.65
64292;BME280;50628;51.008;13.658;2023-05-10T00:40:50;99196.28;;;12.71;79.29
64292;BME280;50628;51.008;13.658;2023-05-10T00:46:00;99199.22;;;12.68;79.36
64292;BME280;50628;51.008;13.658;2023-05-10T00:51:03;99198.09;;;12.52;80.62
64292;BME280;50628;51.008;13.658;2023-05-10T00:56:05;99184.81;;;12.46;81.14
64292;BME280;50628;51.008;13.658;2023-05-10T01:01:07;99190.41;;;12.33;82.44
64292;BME280;50628;51.008;13.658;2023-05-10T01:06:11;99185.56;;;12.38;82.73
64292;BME280;50628;51.008;13.658;2023-05-10T01:11:13;99181.81;;;12.23;84.09
64292;BME280;50628;51.008;13.658;2023-05-10T01:16:15;99181.28;;;12.19;84.24
64292;BME280;50628;51.008;13.658;2023-05-10T01:21:26;99182.94;;;12.20;84.53
64292;BME280;50628;51.008;13.658;2023-05-10T01:26:55;99179.06;;;12.24;84.35
64292;BME280;50628;51.008;13.658;2023-05-10T01:32:16;99164.41;;;11.96;85.83
64292;BME280;50628;51.008;13.658;2023-05-10T01:37:25;99164.50;;;12.04;86.15
64292;BME280;50628;51.008;13.658;2023-05-10T01:42:36;99172.94;;;11.98;86.45
64292;BME280;50628;51.008;13.658;2023-05-10T01:47:44;99172.25;;;11.86;87.98
64292;BME280;50628;51.008;13.658;2023-05-10T01:52:51;99171.13;;;11.70;89.61
64292;BME280;50628;51.008;13.658;2023-05-10T01:58:00;99173.97;;;11.50;94.29
64292;BME280;50628;51.008;13.658;2023-05-10T02:03:06;99165.88;;;11.43;96.16
64292;BME280;50628;51.008;13.658;2023-05-10T02:08:12;99171.72;;;11.17;99.47
64292;BME280;50628;51.008;13.658;2023-05-10T02:13:16;99166.00;;;11.14;100.00
64292;BME280;50628;51.008;13.658;2023-05-10T02:18:20;99173.03;;;10.94;100.00
64292;BME280;50628;51.008;13.658;2023-05-10T02:23:23;99160.84;;;10.85;100.00
64292;BME280;50628;51.008;13.658;2023-05-10T02:28:27;99165.75;;;10.88;100.00
64292;BME280;50628;51.008;13.658;2023-05-10T02:33:31;99152.34;;;10.82;100.00
64292;BME280;50628;51.008;13.658;2023-05-10T02:38:34;99158.34;;;10.93;100.00
64292;BME280;50628;51.008;13.658;2023-05-10T02:43:37;99156.72;;;10.82;100.00
64292;BME280;50628;51.008;13.658;2023-05-10T02:48:42;99159.84;;;11.05;100.00
64292;BME280;50628;51.008;13.658;2023-05-10T02:53:46;99162.06;;;10.71;100.00
64292;BME280;50628;51.008;13.658;2023-05-10T02:58:49;99157.41;;;10.84;100.00
64292;BME280;50628;51.008;13.658;2023-05-10T03:03:52;99164.94;;;10.87;100.00
64292;BME280;50628;51.008;13.658;2023-05-10T03:08:55;99155.50;;;10.76;100.00
64292;BME280;50628;51.008;13.658;2023-05-10T03:14:08;99164.97;;;10.68;100.00
64292;BME280;50628;51.008;13.658;2023-05-10T03:19:18;99163.44;;;10.65;100.00
64292;BME280;50628;51.008;13.658;2023-05-10T03:24:27;99157.84;;;10.79;100.00
64292;BME280;50628;51.008;13.658;2023-05-10T03:29:32;99146.09;;;10.56;100.00
64292;BME280;50628;51.008;13.658;2023-05-10T03:34:41;99156.91;;;10.51;100.00
64292;BME280;50628;51.008;13.658;2023-05-10T03:39:44;99146.75;;;10.68;100.00
64292;BME280;50628;51.008;13.658;2023-05-10T03:44:46;99169.06;;;10.60;100.00
64292;BME280;50628;51.008;13.658;2023-05-10T03:49:51;99172.06;;;10.75;100.00
64292;BME280;50628;51.008;13.658;2023-05-10T03:54:53;99157.94;;;10.88;100.00
64292;BME280;50628;51.008;13.658;2023-05-10T03:59:55;99160.53;;;10.97;100.00
64292;BME280;50628;51.008;13.658;2023-05-10T04:04:59;99167.34;;;11.08;100.00
64292;BME280;50628;51.008;13.658;2023-05-10T04:10:01;99163.09;;;11.17;100.00
64292;BME280;50628;51.008;13.658;2023-05-10T04:15:03;99156.41;;;11.14;100.00
64292;BME280;50628;51.008;13.658;2023-05-10T04:20:08;99162.97;;;11.09;100.00
64292;BME280;50628;51.008;13.658;2023-05-10T04:25:10;99160.59;;;11.25;100.00
64292;BME280;50628;51.008;13.658;2023-05-10T04:30:12;99158.19;;;11.14;100.00
64292;BME280;50628;51.008;13.658;2023-05-10T04:35:15;99156.31;;;11.34;100.00
64292;BME280;50628;51.008;13.658;2023-05-10T04:40:17;99156.31;;;11.34;100.00
64292;BME280;50628;51.008;13.658;2023-05-10T04:45:20;99142.66;;;11.59;100.00
64292;BME280;50628;51.008;13.658;2023-05-10T04:50:23;99142.13;;;11.74;100.00
64292;BME280;50628;51.008;13.658;2023-05-10T04:55:25;99139.22;;;11.86;100.00
64292;BME280;50628;51.008;13.658;2023-05-10T05:00:27;99135.97;;;12.02;100.00
64292;BME280;50628;51.008;13.658;2023-05-10T05:05:30;99139.84;;;12.16;100.00
64292;BME280;50628;51.008;13.658;2023-05-10T05:10:32;99131.06;;;12.35;100.00
64292;BME280;50628;51.008;13.658;2023-05-10T05:15:34;99140.94;;;12.49;100.00
64292;BME280;50628;51.008;13.658;2023-05-10T05:20:37;99152.19;;;12.86;97.60
64292;BME280;50628;51.008;13.658;2023-05-10T05:25:39;99144.34;;;12.86;96.05
64292;BME280;50628;51.008;13.658;2023-05-10T05:30:42;99145.81;;;13.14;94.76
64292;BME280;50628;51.008;13.658;2023-05-10T05:35:45;99138.19;;;13.21;93.72
64292;BME280;50628;51.008;13.658;2023-05-10T05:40:51;99125.19;;;13.29;93.51
64292;BME280;50628;51.008;13.658;2023-05-10T05:45:52;99132.13;;;13.47;92.76
64292;BME280;50628;51.008;13.658;2023-05-10T05:50:56;99135.25;;;13.50;91.24
64292;BME280;50628;51.008;13.658;2023-05-10T05:55:58;99136.56;;;13.54;91.27
64292;BME280;50628;51.008;13.658;2023-05-10T06:01:00;99145.66;;;13.76;91.13
64292;BME280;50628;51.008;13.658;2023-05-10T06:06:04;99145.69;;;13.93;89.59
64292;BME280;50628;51.008;13.658;2023-05-10T06:11:06;99140.31;;;14.11;89.26
64292;BME280;50628;51.008;13.658;2023-05-10T06:16:08;99148.84;;;14.13;87.28
64292;BME280;50628;51.008;13.658;2023-05-10T06:21:11;99159.34;;;14.37;87.67
64292;BME280;50628;51.008;13.658;2023-05-10T06:26:13;99145.09;;;14.48;85.19
64292;BME280;50628;51.008;13.658;2023-05-10T06:31:15;99154.78;;;14.64;84.46
64292;BME280;50628;51.008;13.658;2023-05-10T06:36:18;99155.47;;;14.74;83.44
64292;BME280;50628;51.008;13.658;2023-05-10T06:41:20;99161.00;;;14.87;82.39
64292;BME280;50628;51.008;13.658;2023-05-10T06:46:22;99154.25;;;15.18;83.44
64292;BME280;50628;51.008;13.658;2023-05-10T06:51:26;99148.59;;;15.37;82.68
64292;BME280;50628;51.008;13.658;2023-05-10T06:56:28;99154.22;;;15.26;81.60
64292;BME280;50628;51.008;13.658;2023-05-10T07:01:30;99149.94;;;15.33;81.43
64292;BME280;50628;51.008;13.658;2023-05-10T07:06:33;99148.34;;;15.63;79.45
64292;BME280;50628;51.008;13.658;2023-05-10T07:11:35;99150.31;;;15.61;78.63
64292;BME280;50628;51.008;13.658;2023-05-10T07:16:37;99150.28;;;15.77;79.02
64292;BME280;50628;51.008;13.658;2023-05-10T07:21:41;99154.78;;;15.92;79.25
64292;BME280;50628;51.008;13.658;2023-05-10T07:26:43;99144.38;;;16.07;77.22
64292;BME280;50628;51.008;13.658;2023-05-10T07:31:45;99144.28;;;16.23;77.36
64292;BME280;50628;51.008;13.658;2023-05-10T07:36:48;99152.63;;;16.27;76.49
64292;BME280;50628;51.008;13.658;2023-05-10T07:41:50;99156.47;;;16.62;77.25
64292;BME280;50628;51.008;13.658;2023-05-10T07:46:52;99151.59;;;16.74;76.40
64292;BME280;50628;51.008;13.658;2023-05-10T07:51:55;99160.22;;;16.44;75.08
64292;BME280;50628;51.008;13.658;2023-05-10T07:56:57;99148.84;;;16.90;74.52
64292;BME280;50628;51.008;13.658;2023-05-10T08:02:00;99148.16;;;16.96;74.56
64292;BME280;50628;51.008;13.658;2023-05-10T08:07:03;99135.47;;;17.15;74.13
64292;BME280;50628;51.008;13.658;2023-05-10T08:12:11;99144.28;;;17.37;73.64
64292;BME280;50628;51.008;13.658;2023-05-10T08:17:13;99137.03;;;17.24;74.20
64292;BME280;50628;51.008;13.658;2023-05-10T08:22:16;99140.25;;;17.41;73.82
64292;BME280;50628;51.008;13.658;2023-05-10T08:27:18;99155.66;;;17.59;72.86
64292;BME280;50628;51.008;13.658;2023-05-10T08:32:32;99152.66;;;17.77;72.90
64292;BME280;50628;51.008;13.658;2023-05-10T08:37:36;99152.41;;;17.71;72.51
64292;BME280;50628;51.008;13.658;2023-05-10T08:42:40;99157.31;;;17.60;72.93
64292;BME280;50628;51.008;13.658;2023-05-10T08:47:42;99165.72;;;18.00;72.08
64292;BME280;50628;51.008;13.658;2023-05-10T08:52:46;99164.63;;;18.30;72.23
64292;BME280;50628;51.008;13.658;2023-05-10T08:57:49;99168.16;;;18.01;71.73
64292;BME280;50628;51.008;13.658;2023-05-10T09:02:51;99177.28;;;18.20;70.84
64292;BME280;50628;51.008;13.658;2023-05-10T09:07:55;99182.75;;;18.40;70.70
64292;BME280;50628;51.008;13.658;2023-05-10T09:12:57;99181.00;;;18.47;70.44
64292;BME280;50628;51.008;13.658;2023-05-10T09:18:00;99180.34;;;18.67;70.22
64292;BME280;50628;51.008;13.658;2023-05-10T09:23:04;99189.03;;;18.82;68.79
64292;BME280;50628;51.008;13.658;2023-05-10T09:28:06;99184.19;;;18.86;68.80
64292;BME280;50628;51.008;13.658;2023-05-10T09:33:12;99193.16;;;18.70;69.14
64292;BME280;50628;51.008;13.658;2023-05-10T09:38:18;99184.03;;;19.22;69.32
64292;BME280;50628;51.008;13.658;2023-05-10T09:43:20;99192.19;;;19.62;69.65
64292;BME280;50628;51.008;13.658;2023-05-10T09:48:23;99191.31;;;19.48;67.14
64292;BME280;50628;51.008;13.658;2023-05-10T09:53:35;99196.16;;;19.44;67.26
64292;BME280;50628;51.008;13.658;2023-05-10T09:58:37;99192.06;;;19.35;66.81
64292;BME280;50628;51.008;13.658;2023-05-10T10:03:42;99188.34;;;19.64;65.73
64292;BME280;50628;51.008;13.658;2023-05-10T10:08:46;99183.53;;;19.75;66.52
64292;BME280;50628;51.008;13.658;2023-05-10T10:13:48;99185.06;;;19.97;67.08
64292;BME280;50628;51.008;13.658;2023-05-10T10:18:50;99188.41;;;19.71;64.93
64292;BME280;50628;51.008;13.658;2023-05-10T10:23:54;99190.94;;;19.58;66.41
64292;BME280;50628;51.008;13.658;2023-05-10T10:29:04;99183.34;;;19.76;65.65
64292;BME280;50628;51.008;13.658;2023-05-10T10:34:28;99185.63;;;19.93;64.33
64292;BME280;50628;51.008;13.658;2023-05-10T10:39:32;99188.94;;;20.01;64.41
64292;BME280;50628;51.008;13.658;2023-05-10T10:44:37;99188.94;;;20.08;64.72
64292;BME280;50628;51.008;13.658;2023-05-10T10:49:48;99196.69;;;20.09;63.91
64292;BME280;50628;51.008;13.658;2023-05-10T10:55:01;99188.00;;;20.29;64.58
64292;BME280;50628;51.008;13.658;2023-05-10T11:00:18;99192.94;;;20.59;63.50
64292;BME280;50628;51.008;13.658;2023-05-10T11:05:40;99193.50;;;20.34;62.88
64292;BME280;50628;51.008;13.658;2023-05-10T11:11:04;99197.41;;;20.58;62.83
64292;BME280;50628;51.008;13.658;2023-05-10T11:16:14;99196.00;;;20.69;62.94
64292;BME280;50628;51.008;13.658;2023-05-10T11:21:19;99193.38;;;20.82;62.18
64292;BME280;50628;51.008;13.658;2023-05-10T11:26:30;99185.84;;;20.72;62.01
64292;BME280;50628;51.008;13.658;2023-05-10T11:31:42;99201.09;;;20.70;62.16
64292;BME280;50628;51.008;13.658;2023-05-10T11:36:53;99201.28;;;20.62;62.30
64292;BME280;50628;51.008;13.658;2023-05-10T11:42:00;99204.53;;;20.91;62.73
64292;BME280;50628;51.008;13.658;2023-05-10T11:47:08;99199.06;;;20.92;61.43
64292;BME280;50628;51.008;13.658;2023-05-10T11:52:13;99202.66;;;21.51;60.09
64292;BME280;50628;51.008;13.658;2023-05-10T11:57:18;99199.44;;;21.23;59.87
64292;BME280;50628;51.008;13.658;2023-05-10T12:02:20;99205.59;;;21.88;59.94
64292;BME280;50628;51.008;13.658;2023-05-10T12:07:22;99211.66;;;21.24;59.93
64292;BME280;50628;51.008;13.658;2023-05-10T12:12:25;99210.22;;;21.21;58.82
64292;BME280;50628;51.008;13.658;2023-05-10T12:17:28;99210.34;;;21.73;57.85
64292;BME280;50628;51.008;13.658;2023-05-10T12:22:33;99216.38;;;21.02;60.75
64292;BME280;50628;51.008;13.658;2023-05-10T12:27:36;99224.91;;;20.97;60.53
64292;BME280;50628;51.008;13.658;2023-05-10T12:32:39;99228.56;;;21.23;58.93
64292;BME280;50628;51.008;13.658;2023-05-10T12:37:42;99236.47;;;21.36;59.41
64292;BME280;50628;51.008;13.658;2023-05-10T12:42:45;99228.13;;;21.52;58.66
64292;BME280;50628;51.008;13.658;2023-05-10T12:47:47;99246.06;;;21.44;58.29
64292;BME280;50628;51.008;13.658;2023-05-10T12:52:49;99247.47;;;21.53;56.15
64292;BME280;50628;51.008;13.658;2023-05-10T12:57:52;99246.59;;;21.79;56.29
64292;BME280;50628;51.008;13.658;2023-05-10T13:02:54;99251.94;;;21.72;57.13
64292;BME280;50628;51.008;13.658;2023-05-10T13:07:56;99250.91;;;22.25;56.01
64292;BME280;50628;51.008;13.658;2023-05-10T13:12:59;99250.16;;;22.04;54.78
64292;BME280;50628;51.008;13.658;2023-05-10T13:18:01;99250.69;;;21.75;52.51
64292;BME280;50628;51.008;13.658;2023-05-10T13:23:03;99253.78;;;21.65;52.81
64292;BME280;50628;51.008;13.658;2023-05-10T13:28:06;99247.44;;;22.31;50.33
64292;BME280;50628;51.008;13.658;2023-05-10T13:33:08;99244.22;;;22.09;51.65
64292;BME280;50628;51.008;13.658;2023-05-10T13:38:11;99247.59;;;22.43;52.97
64292;BME280;50628;51.008;13.658;2023-05-10T13:43:15;99239.16;;;22.08;52.65
64292;BME280;50628;51.008;13.658;2023-05-10T13:48:17;99246.84;;;22.22;50.74
64292;BME280;50628;51.008;13.658;2023-05-10T13:53:19;99236.16;;;23.06;49.29
64292;BME280;50628;51.008;13.658;2023-05-10T14:11:06;99247.13;;;20.28;73.66
64292;BME280;50628;51.008;13.658;2023-05-10T14:16:08;99253.75;;;20.59;73.57
64292;BME280;50628;51.008;13.658;2023-05-10T14:21:10;99245.75;;;20.39;75.36
64292;BME280;50628;51.008;13.658;2023-05-10T14:26:13;99242.53;;;19.88;80.27
64292;BME280;50628;51.008;13.658;2023-05-10T14:31:15;99240.47;;;19.84;80.99
64292;BME280;50628;51.008;13.658;2023-05-10T14:36:19;99247.13;;;19.73;85.62
64292;BME280;50628;51.008;13.658;2023-05-10T14:41:23;99249.47;;;19.33;96.39
64292;BME280;50628;51.008;13.658;2023-05-10T14:46:25;99250.22;;;19.55;99.42
64292;BME280;50628;51.008;13.658;2023-05-10T14:51:27;99247.81;;;19.60;96.07
64292;BME280;50628;51.008;13.658;2023-05-10T14:56:30;99248.06;;;19.65;97.23
64292;BME280;50628;51.008;13.658;2023-05-10T15:01:32;99247.38;;;19.57;100.00
64292;BME280;50628;51.008;13.658;2023-05-10T15:06:35;99243.78;;;20.61;93.29
64292;BME280;50628;51.008;13.658;2023-05-10T15:11:39;99252.22;;;20.29;90.84
64292;BME280;50628;51.008;13.658;2023-05-10T15:16:40;99256.25;;;20.19;90.69
64292;BME280;50628;51.008;13.658;2023-05-10T15:21:42;99254.16;;;20.01;92.33
64292;BME280;50628;51.008;13.658;2023-05-10T15:26:46;99253.69;;;19.56;92.97
64292;BME280;50628;51.008;13.658;2023-05-10T15:31:49;99257.63;;;19.10;94.77
64292;BME280;50628;51.008;13.658;2023-05-10T15:36:51;99260.44;;;18.87;97.78
64292;BME280;50628;51.008;13.658;2023-05-10T15:41:54;99267.31;;;18.67;100.00
64292;BME280;50628;51.008;13.658;2023-05-10T15:46:56;99259.16;;;18.76;100.00
64292;BME280;50628;51.008;13.658;2023-05-10T15:51:58;99268.41;;;18.72;100.00
64292;BME280;50628;51.008;13.658;2023-05-10T15:57:01;99268.53;;;18.28;100.00
64292;BME280;50628;51.008;13.658;2023-05-10T16:02:03;99278.16;;;18.35;100.00
64292;BME280;50628;51.008;13.658;2023-05-10T16:07:05;99267.41;;;18.73;100.00
64292;BME280;50628;51.008;13.658;2023-05-10T16:12:08;99273.63;;;18.66;100.00
64292;BME280;50628;51.008;13.658;2023-05-10T16:17:10;99273.88;;;18.71;100.00
64292;BME280;50628;51.008;13.658;2023-05-10T16:22:12;99277.50;;;18.48;100.00
64292;BME280;50628;51.008;13.658;2023-05-10T16:27:15;99281.59;;;18.72;100.00
64292;BME280;50628;51.008;13.658;2023-05-10T16:32:18;99276.38;;;18.57;100.00
64292;BME280;50628;51.008;13.658;2023-05-10T16:37:19;99291.19;;;18.22;100.00
64292;BME280;50628;51.008;13.658;2023-05-10T16:42:23;99297.91;;;18.10;100.00
64292;BME280;50628;51.008;13.658;2023-05-10T16:47:25;99301.25;;;17.74;100.00
64292;BME280;50628;51.008;13.658;2023-05-10T16:52:27;99309.66;;;17.55;100.00
64292;BME280;50628;51.008;13.658;2023-05-10T16:57:30;99314.38;;;17.59;100.00
64292;BME280;50628;51.008;13.658;2023-05-10T17:02:33;99316.25;;;17.50;100.00
64292;BME280;50628;51.008;13.658;2023-05-10T17:07:35;99321.03;;;17.32;100.00
64292;BME280;50628;51.008;13.658;2023-05-10T17:12:38;99322.91;;;17.46;100.00
64292;BME280;50628;51.008;13.658;2023-05-10T17:17:40;99329.66;;;17.41;100.00
64292;BME280;50628;51.008;13.658;2023-05-10T17:22:42;99323.63;;;17.55;100.00
64292;BME280;50628;51.008;13.658;2023-05-10T17:27:45;99336.59;;;17.19;100.00
64292;BME280;50628;51.008;13.658;2023-05-10T17:32:47;99334.94;;;17.41;100.00
64292;BME280;50628;51.008;13.658;2023-05-10T17:37:49;99348.31;;;17.31;100.00
64292;BME280;50628;51.008;13.658;2023-05-10T17:42:54;99361.97;;;17.12;100.00
64292;BME280;50628;51.008;13.658;2023-05-10T17:47:56;99364.88;;;16.94;100.00
64292;BME280;50628;51.008;13.658;2023-05-10T17:52:58;99366.16;;;16.98;100.00
64292;BME280;50628;51.008;13.658;2023-05-10T17:58:01;99379.13;;;16.99;100.00
64292;BME280;50628;51.008;13.658;2023-05-10T18:03:03;99370.81;;;17.11;100.00
64292;BME280;50628;51.008;13.658;2023-05-10T18:08:05;99369.19;;;17.09;100.00
64292;BME280;50628;51.008;13.658;2023-05-10T18:13:09;99375.78;;;17.05;100.00
64292;BME280;50628;51.008;13.658;2023-05-10T18:18:11;99378.78;;;17.02;100.00
64292;BME280;50628;51.008;13.658;2023-05-10T18:23:13;99384.47;;;16.83;100.00
64292;BME280;50628;51.008;13.658;2023-05-10T18:28:16;99383.69;;;16.74;100.00
64292;BME280;50628;51.008;13.658;2023-05-10T18:33:18;99390.56;;;16.83;100.00
64292;BME280;50628;51.008;13.658;2023-05-10T18:38:20;99392.47;;;16.58;100.00
64292;BME280;50628;51.008;13.658;2023-05-10T18:43:23;99396.81;;;16.74;100.00
64292;BME280;50628;51.008;13.658;2023-05-10T18:48:25;99393.72;;;16.71;100.00
64292;BME280;50628;51.008;13.658;2023-05-10T18:53:27;99400.44;;;16.73;100.00
64292;BME280;50628;51.008;13.658;2023-05-10T18:58:30;99405.28;;;16.53;100.00
64292;BME280;50628;51.008;13.658;2023-05-10T19:03:34;99414.66;;;16.56;100.00
64292;BME280;50628;51.008;13.658;2023-05-10T19:08:36;99425.34;;;16.46;100.00
64292;BME280;50628;51.008;13.658;2023-05-10T19:13:39;99427.84;;;16.31;100.00
64292;BME280;50628;51.008;13.658;2023-05-10T19:18:41;99433.34;;;16.05;100.00
64292;BME280;50628;51.008;13.658;2023-05-10T19:23:43;99441.84;;;15.99;100.00
64292;BME280;50628;51.008;13.658;2023-05-10T19:28:46;99446.25;;;16.15;100.00
64292;BME280;50628;51.008;13.658;2023-05-10T19:33:48;99449.38;;;16.02;100.00
64292;BME280;50628;51.008;13.658;2023-05-10T19:38:50;99449.56;;;16.00;100.00
64292;BME280;50628;51.008;13.658;2023-05-10T19:43:54;99439.41;;;15.89;100.00
64292;BME280;50628;51.008;13.658;2023-05-10T19:48:55;99441.69;;;15.92;100.00
64292;BME280;50628;51.008;13.658;2023-05-10T19:53:57;99450.56;;;15.83;100.00
64292;BME280;50628;51.008;13.658;2023-05-10T19:59:01;99443.50;;;15.84;100.00
64292;BME280;50628;51.008;13.658;2023-05-10T20:04:03;99446.91;;;15.59;100.00
64292;BME280;50628;51.008;13.658;2023-05-10T20:09:05;99450.84;;;15.47;100.00
64292;BME280;50628;51.008;13.658;2023-05-10T20:14:09;99450.81;;;15.31;100.00
64292;BME280;50628;51.008;13.658;2023-05-10T20:19:11;99449.13;;;15.05;100.00
64292;BME280;50628;51.008;13.658;2023-05-10T20:24:13;99445.63;;;14.97;100.00
64292;BME280;50628;51.008;13.658;2023-05-10T20:29:16;99450.53;;;14.83;100.00
64292;BME280;50628;51.008;13.658;2023-05-10T20:34:18;99457.69;;;14.73;100.00
64292;BME280;50628;51.008;13.658;2023-05-10T20:39:20;99460.25;;;14.57;100.00
64292;BME280;50628;51.008;13.658;2023-05-10T20:44:23;99460.78;;;14.42;100.00
64292;BME280;50628;51.008;13.658;2023-05-10T20:49:25;99471.22;;;14.34;100.00
64292;BME280;50628;51.008;13.658;2023-05-10T20:54:27;99469.19;;;14.28;100.00
64292;BME280;50628;51.008;13.658;2023-05-10T20:59:31;99478.53;;;14.04;100.00
64292;BME280;50628;51.008;13.658;2023-05-10T21:04:32;99465.81;;;14.10;100.00
64292;BME280;50628;51.008;13.658;2023-05-10T21:09:34;99468.94;;;14.13;100.00
64292;BME280;50628;51.008;13.658;2023-05-10T21:14:38;99473.13;;;14.06;100.00
64292;BME280;50628;51.008;13.658;2023-05-10T21:19:39;99468.47;;;14.18;100.00
64292;BME280;50628;51.008;13.658;2023-05-10T21:24:42;99475.34;;;13.75;100.00
64292;BME280;50628;51.008;13.658;2023-05-10T21:29:45;99482.59;;;13.81;100.00
64292;BME280;50628;51.008;13.658;2023-05-10T21:34:47;99477.72;;;13.68;100.00
64292;BME280;50628;51.008;13.658;2023-05-10T21:39:49;99482.97;;;13.50;100.00
64292;BME280;50628;51.008;13.658;2023-05-10T21:44:53;99482.16;;;13.50;100.00
64292;BME280;50628;51.008;13.658;2023-05-10T21:49:55;99485.44;;;13.34;100.00
64292;BME280;50628;51.008;13.658;2023-05-10T21:54:57;99490.66;;;13.06;100.00
64292;BME280;50628;51.008;13.658;2023-05-10T22:00:00;99493.44;;;12.95;100.00
64292;BME280;50628;51.008;13.658;2023-05-10T22:05:05;99493.44;;;12.95;100.00
64292;BME280;50628;51.008;13.658;2023-05-10T22:10:08;99494.50;;;13.02;100.00
64292;BME280;50628;51.008;13.658;2023-05-10T22:15:11;99500.50;;;12.85;100.00
64292;BME280;50628;51.008;13.658;2023-05-10T22:20:13;99498.81;;;12.93;100.00
64292;BME280;50628;51.008;13.658;2023-05-10T22:25:15;99507.41;;;12.76;100.00
64292;BME280;50628;51.008;13.658;2023-05-10T22:30:19;99504.84;;;12.66;100.00
64292;BME280;50628;51.008;13.658;2023-05-10T22:35:21;99500.34;;;12.49;100.00
64292;BME280;50628;51.008;13.658;2023-05-10T22:40:22;99500.53;;;12.38;100.00
64292;BME280;50628;51.008;13.658;2023-05-10T22:45:26;99502.75;;;12.32;100.00
64292;BME280;50628;51.008;13.658;2023-05-10T22:50:28;99496.16;;;12.28;100.00
64292;BME280;50628;51.008;13.658;2023-05-10T22:55:30;99506.19;;;12.23;100.00
64292;BME280;50628;51.008;13.658;2023-05-10T23:00:33;99503.56;;;12.23;100.00
64292;BME280;50628;51.008;13.658;2023-05-10T23:05:35;99505.91;;;12.26;100.00
64292;BME280;50628;51.008;13.658;2023-05-10T23:10:37;99497.53;;;12.23;100.00
64292;BME280;50628;51.008;13.658;2023-05-10T23:15:40;99507.00;;;12.33;100.00
64292;BME280;50628;51.008;13.658;2023-05-10T23:20:43;99505.78;;;12.18;100.00
64292;BME280;50628;51.008;13.658;2023-05-10T23:25:45;99508.09;;;12.21;100.00
64292;BME280;50628;51.008;13.658;2023-05-10T23:30:53;99510.88;;;12.10;100.00
64292;BME280;50628;51.008;13.658;2023-05-10T23:35:55;99503.59;;;12.13;100.00
64292;BME280;50628;51.008;13.658;2023-05-10T23:40:57;99503.59;;;12.13;100.00
64292;BME280;50628;51.008;13.658;2023-05-10T23:46:00;99508.28;;;12.10;100.00
64292;BME280;50628;51.008;13.658;2023-05-10T23:51:02;99499.75;;;12.08;100.00
64292;BME280;50628;51.008;13.658;2023-05-10T23:56:04;99497.44;;;12.15;100.00
